Bgp Supply II — HP6535 — position and weather

sailwx.info

Track history (hours):
 
Tides and Currents Weather Stations Pressure Air Temp Water Temp Dewpoint Dewpoint Depression Visibility Wind Speed Wind Dir Waves Ship Positions

Bgp Supply II

Last reported at 2017-Sep-19 13:05 UTC. Time now 2017-Sep-21 03:38 UTC.
Position N 32°33' W 009°40'.

Length 62 m; draft 4.4 m.

Type: Tug. MMSI: 371583000.

Date/timePositionNaut miles runAvg speedWind from/ knotsBaromVisibWave heightAir tempDewpointWater temp
2017-Sep-19 13:05N 32°33' W 009°40'  
2017-Sep-15 10:03N 35°28' W 008°47'0 2.3
2017-Sep-15 09:59N 35°28' W 008°47'3 2.4
2017-Sep-15 08:47N 35°25' W 008°48'1 3.8
2017-Sep-15 08:30N 35°24' W 008°49'3 3.9
2017-Sep-15 07:44N 35°22' W 008°51'1 4.0
2017-Sep-15 07:30N 35°21' W 008°52'3 3.4
2017-Sep-15 06:29N 35°19' W 008°54'1 2.3
2017-Sep-15 06:00N 35°18' W 008°55'1 2.3
2017-Sep-15 05:29N 35°17' W 008°56'1 2.4
2017-Sep-15 05:00N 35°16' W 008°57'4 3.4
2017-Sep-15 03:48N 35°12' W 008°59'2 4.3
2017-Sep-15 03:24N 35°11' W 009°01'38 5.4
2017-Sep-14 20:22N 35°09' W 009°47'1 3.5
2017-Sep-14 19:59N 35°09' W 009°49'2 3.2
2017-Sep-14 19:18N 35°08' W 009°51'1 3.2
2017-Sep-14 18:52N 35°07' W 009°52'5 3.0
2017-Sep-14 17:21N 35°04' W 009°56'1 2.8
2017-Sep-14 17:00N 35°03' W 009°56'1 2.7
2017-Sep-14 16:29N 35°02' W 009°57'1 2.3
2017-Sep-14 15:57N 35°00' W 009°57'33 2.3
2017-Sep-14 01:36N 34°32' W 009°37'0 3.1
2017-Sep-14 01:28N 34°31' W 009°37'18 3.7
2017-Sep-13 20:42N 34°20' W 009°21'1 3.7
2017-Sep-13 20:23N 34°19' W 009°19'1 3.3
2017-Sep-13 20:00N 34°18' W 009°18'2 3.5
2017-Sep-13 19:26N 34°17' W 009°16'2 4.2
2017-Sep-13 19:00N 34°16' W 009°14'3 4.4
2017-Sep-13 18:25N 34°14' W 009°12'2 4.4
2017-Sep-13 17:56N 34°13' W 009°10'2 4.5
2017-Sep-13 17:23N 34°11' W 009°08'1 3.4
2017-Sep-13 16:56N 34°10' W 009°07'2 3.1
2017-Sep-13 16:27N 34°09' W 009°06'6 4.3
2017-Sep-13 15:08N 34°05' W 009°01'1 4.3
2017-Sep-13 15:00N 34°05' W 009°00'5 3.7
2017-Sep-13 13:42N 34°01' W 008°56'1 4.3
2017-Sep-13 13:22N 34°01' W 008°54'2 4.3
2017-Sep-13 13:00N 33°60' W 008°53'2 4.4
2017-Sep-13 12:30N 33°58' W 008°51'3 4.6
2017-Sep-13 11:50N 33°56' W 008°48'3 4.8
2017-Sep-13 11:14N 33°55' W 008°45'1 5.0
2017-Sep-13 11:00N 33°55' W 008°43'4 7.8
2017-Sep-13 10:30N 33°53' W 008°40'3 5.5
2017-Sep-13 10:00N 33°51' W 008°37'3 5.5
2017-Sep-13 09:29N 33°49' W 008°35'34 1.6
2017-Sep-12 13:03N 33°18' W 008°50'  
Track history (hours):
 
Tides and Currents Weather Stations Pressure Air Temp Water Temp Dewpoint Dewpoint Depression Visibility Wind Speed Wind Dir Waves Ship Positions

Bgp Supply II

Last reported at 2017-Sep-19 13:05 UTC. Time now 2017-Sep-21 03:38 UTC.
Position N 32°33' W 009°40'.

Length 62 m; draft 4.4 m.

Type: Tug. MMSI: 371583000.

Date/timePositionNaut miles runAvg speedWind from/ knotsBaromVisibWave heightAir tempDewpointWater temp
2017-Sep-19 13:05N 32°33' W 009°40'  
2017-Sep-15 10:03N 35°28' W 008°47'0 2.3
2017-Sep-15 09:59N 35°28' W 008°47'3 2.4
2017-Sep-15 08:47N 35°25' W 008°48'1 3.8
2017-Sep-15 08:30N 35°24' W 008°49'3 3.9
2017-Sep-15 07:44N 35°22' W 008°51'1 4.0
2017-Sep-15 07:30N 35°21' W 008°52'3 3.4
2017-Sep-15 06:29N 35°19' W 008°54'1 2.3
2017-Sep-15 06:00N 35°18' W 008°55'1 2.3
2017-Sep-15 05:29N 35°17' W 008°56'1 2.4
2017-Sep-15 05:00N 35°16' W 008°57'4 3.4
2017-Sep-15 03:48N 35°12' W 008°59'2 4.3
2017-Sep-15 03:24N 35°11' W 009°01'38 5.4
2017-Sep-14 20:22N 35°09' W 009°47'1 3.5
2017-Sep-14 19:59N 35°09' W 009°49'2 3.2
2017-Sep-14 19:18N 35°08' W 009°51'1 3.2
2017-Sep-14 18:52N 35°07' W 009°52'5 3.0
2017-Sep-14 17:21N 35°04' W 009°56'1 2.8
2017-Sep-14 17:00N 35°03' W 009°56'1 2.7
2017-Sep-14 16:29N 35°02' W 009°57'1 2.3
2017-Sep-14 15:57N 35°00' W 009°57'33 2.3
2017-Sep-14 01:36N 34°32' W 009°37'0 3.1
2017-Sep-14 01:28N 34°31' W 009°37'18 3.7
2017-Sep-13 20:42N 34°20' W 009°21'1 3.7
2017-Sep-13 20:23N 34°19' W 009°19'1 3.3
2017-Sep-13 20:00N 34°18' W 009°18'2 3.5
2017-Sep-13 19:26N 34°17' W 009°16'2 4.2
2017-Sep-13 19:00N 34°16' W 009°14'3 4.4
2017-Sep-13 18:25N 34°14' W 009°12'2 4.4
2017-Sep-13 17:56N 34°13' W 009°10'2 4.5
2017-Sep-13 17:23N 34°11' W 009°08'1 3.4
2017-Sep-13 16:56N 34°10' W 009°07'2 3.1
2017-Sep-13 16:27N 34°09' W 009°06'6 4.3
2017-Sep-13 15:08N 34°05' W 009°01'1 4.3
2017-Sep-13 15:00N 34°05' W 009°00'5 3.7
2017-Sep-13 13:42N 34°01' W 008°56'1 4.3
2017-Sep-13 13:22N 34°01' W 008°54'2 4.3
2017-Sep-13 13:00N 33°60' W 008°53'2 4.4
2017-Sep-13 12:30N 33°58' W 008°51'3 4.6
2017-Sep-13 11:50N 33°56' W 008°48'3 4.8
2017-Sep-13 11:14N 33°55' W 008°45'1 5.0
2017-Sep-13 11:00N 33°55' W 008°43'4 7.8
2017-Sep-13 10:30N 33°53' W 008°40'3 5.5
2017-Sep-13 10:00N 33°51' W 008°37'3 5.5
2017-Sep-13 09:29N 33°49' W 008°35'34 1.6
2017-Sep-12 13:03N 33°18' W 008°50'  

Dump ship's entire track history